Time;durP1;ratioP1;P1;durP2;ratioP2;P2;SDS_P1;SDS_P2;PMS_P1;PMS_P2;Temp;Humidity;BMP_temperature;BMP_pressure;BME280_temperature;BME280_humidity;BME280_pressure;Samples;Min_cycle;Max_cycle;Signal;HPM_P1;HPM_P2
2022/11/28 00:00:52;;;;;;;68.47;35.67;;;4.20;99.90;;;;;;5055501;28;20021;-68
2022/11/28 00:03:18;;;;;;;68.43;36.95;;;4.20;99.90;;;;;;5054995;28;20029;-68
2022/11/28 00:05:44;;;;;;;65.35;36.45;;;4.20;99.90;;;;;;5054618;28;20147;-68
2022/11/28 00:08:09;;;;;;;67.00;37.22;;;4.30;99.90;;;;;;5055121;28;20385;-68
2022/11/28 00:10:39;;;;;;;60.50;33.50;;;4.30;99.90;;;;;;5054550;28;20025;-69
2022/11/28 00:13:04;;;;;;;54.78;32.70;;;4.30;99.90;;;;;;5055054;28;20487;-68
2022/11/28 00:15:30;;;;;;;61.13;32.78;;;4.30;99.90;;;;;;5054543;28;20118;-69
2022/11/28 00:17:56;;;;;;;62.08;33.40;;;4.30;99.90;;;;;;5055028;28;20401;-68
2022/11/28 00:20:21;;;;;;;57.20;32.65;;;4.30;99.90;;;;;;5054699;28;20390;-68
2022/11/28 00:22:47;;;;;;;54.70;31.65;;;4.30;99.90;;;;;;5054349;28;20028;-68
2022/11/28 00:25:13;;;;;;;56.08;30.38;;;4.20;99.90;;;;;;5055029;28;20466;-68
2022/11/28 00:27:38;;;;;;;46.83;28.92;;;4.20;99.90;;;;;;5054167;28;20025;-68
2022/11/28 00:30:05;;;;;;;54.42;30.60;;;4.30;99.90;;;;;;5054834;28;20032;-68
2022/11/28 00:32:30;;;;;;;53.78;30.25;;;4.20;99.90;;;;;;5054168;28;20040;-68
2022/11/28 00:34:56;;;;;;;52.33;29.85;;;4.20;99.90;;;;;;5054658;28;20037;-68
2022/11/28 00:37:21;;;;;;;52.47;30.60;;;4.20;99.90;;;;;;5054629;28;20036;-68
2022/11/28 00:39:47;;;;;;;46.25;29.02;;;4.20;99.90;;;;;;5053823;28;20658;-68
2022/11/28 00:42:14;;;;;;;54.83;29.40;;;4.20;99.90;;;;;;5054567;28;20523;-68
2022/11/28 00:44:40;;;;;;;51.70;29.15;;;4.20;99.90;;;;;;5053827;28;20036;-68
2022/11/28 00:47:06;;;;;;;55.22;28.95;;;4.20;99.90;;;;;;5054503;28;20382;-68
2022/11/28 00:49:31;;;;;;;47.55;28.38;;;4.20;99.90;;;;;;5054187;28;20039;-68
2022/11/28 00:51:57;;;;;;;54.60;28.70;;;4.10;99.90;;;;;;5054593;28;20373;-68
2022/11/28 00:54:22;;;;;;;49.50;29.50;;;4.20;99.90;;;;;;5052174;28;20025;-68
2022/11/28 00:56:48;;;;;;;46.92;27.30;;;4.10;99.90;;;;;;5054085;28;20104;-68
2022/11/28 00:59:14;;;;;;;46.90;27.35;;;4.10;99.90;;;;;;5054527;28;20075;-67
2022/11/28 01:01:42;;;;;;;55.53;29.10;;;4.10;99.90;;;;;;5053906;28;20029;-68
2022/11/28 01:04:10;;;;;;;54.75;28.73;;;4.10;99.90;;;;;;5054406;28;20017;-67
2022/11/28 01:06:39;;;;;;;55.53;26.70;;;4.00;99.90;;;;;;5053617;28;20445;-68
2022/11/28 01:09:11;;;;;;;45.22;26.65;;;4.00;99.90;;;;;;5054283;28;20032;-68
2022/11/28 01:11:39;;;;;;;44.58;25.35;;;4.00;99.90;;;;;;5053373;28;20469;-69
2022/11/28 01:14:05;;;;;;;42.08;25.70;;;4.00;99.90;;;;;;5053953;28;20033;-69
2022/11/28 01:16:31;;;;;;;38.97;22.70;;;4.00;99.90;;;;;;5053722;28;20457;-69
2022/11/28 01:18:57;;;;;;;36.47;21.08;;;4.00;99.90;;;;;;5053674;28;20116;-69
2022/11/28 01:21:23;;;;;;;42.45;22.88;;;4.00;99.90;;;;;;5053841;28;20029;-69
2022/11/28 01:23:49;;;;;;;37.42;21.73;;;3.90;99.90;;;;;;5052962;28;20354;-69
2022/11/28 01:26:21;;;;;;;37.13;21.40;;;3.80;99.90;;;;;;5053497;28;20578;-69
2022/11/28 01:28:47;;;;;;;36.92;22.13;;;3.80;99.90;;;;;;5053002;28;20481;-69
2022/11/28 01:31:15;;;;;;;37.22;21.30;;;3.80;99.90;;;;;;5053730;28;20031;-69
2022/11/28 01:33:41;;;;;;;41.70;20.88;;;3.80;99.90;;;;;;5053052;28;20095;-69
2022/11/28 01:36:08;;;;;;;40.83;21.83;;;3.80;99.90;;;;;;5053607;28;20048;-69
2022/11/28 01:38:34;;;;;;;39.38;22.73;;;3.80;99.90;;;;;;5052868;28;20095;-69
2022/11/28 01:41:00;;;;;;;40.85;21.42;;;3.80;99.90;;;;;;5053391;28;20036;-68
2022/11/28 01:43:26;;;;;;;41.80;21.58;;;3.80;99.90;;;;;;5053265;28;20052;-67
2022/11/28 01:45:52;;;;;;;39.58;20.23;;;3.70;99.90;;;;;;5052658;28;20485;-68
2022/11/28 01:48:27;;;;;;;42.13;21.05;;;3.70;99.90;;;;;;5053375;28;20025;-69
2022/11/28 01:50:58;;;;;;;47.83;21.55;;;3.70;99.90;;;;;;5052819;28;20024;-68
2022/11/28 01:53:27;;;;;;;;;;;3.70;99.90;;;;;;5053759;28;20369;-69
2022/11/28 01:56:00;;;;;;;41.78;20.98;;;3.60;99.90;;;;;;5052855;28;19951;-69
2022/11/28 01:58:27;;;;;;;42.75;21.98;;;3.60;99.90;;;;;;5053290;28;20048;-68
2022/11/28 02:00:53;;;;;;;51.88;23.38;;;3.60;99.90;;;;;;5052805;28;20032;-68
2022/11/28 02:03:28;;;;;;;51.35;23.40;;;3.60;99.90;;;;;;5053332;28;20025;-68
2022/11/28 02:05:56;;;;;;;51.80;23.90;;;3.60;99.90;;;;;;5052370;28;20371;-68
2022/11/28 02:08:21;;;;;;;48.92;23.73;;;3.60;99.90;;;;;;5053109;28;20477;-68
2022/11/28 02:11:16;;;;;;;49.95;22.80;;;3.60;99.90;;;;;;5052524;28;20033;-68
2022/11/28 02:14:03;;;;;;;49.58;23.85;;;3.60;99.90;;;;;;5042572;28;20389;-68
2022/11/28 02:17:03;;;;;;;51.05;24.77;;;3.60;99.90;;;;;;5053097;28;20029;-67
2022/11/28 02:19:38;;;;;;;57.35;24.63;;;3.60;99.90;;;;;;5052940;28;20021;-67
2022/11/28 02:22:28;;;;;;;50.72;23.48;;;3.60;99.90;;;;;;5052843;28;20039;-68
2022/11/28 02:25:05;;;;;;;49.53;24.95;;;3.60;99.90;;;;;;5052160;28;20049;-68
2022/11/28 02:27:55;;;;;;;50.10;24.48;;;3.70;99.90;;;;;;5052703;28;20060;-69
2022/11/28 02:30:39;;;;;;;50.92;24.15;;;3.70;99.90;;;;;;5052491;28;20025;-68
2022/11/28 02:33:26;;;;;;;54.88;23.55;;;3.70;99.90;;;;;;5051218;28;20469;-69
2022/11/28 02:36:08;;;;;;;49.58;24.17;;;3.70;99.90;;;;;;5051778;28;20426;-69
2022/11/28 02:38:45;;;;;;;50.45;23.85;;;3.70;99.90;;;;;;5052301;28;20115;-69
2022/11/28 02:41:21;;;;;;;46.97;23.70;;;3.80;99.90;;;;;;5052333;28;20036;-69
2022/11/28 02:44:05;;;;;;;49.05;23.67;;;3.80;99.90;;;;;;5051893;28;20025;-69
2022/11/28 02:46:57;;;;;;;50.67;24.52;;;3.80;99.90;;;;;;5052540;28;20029;-67
2022/11/28 02:49:30;;;;;;;50.13;22.65;;;3.80;99.90;;;;;;5052407;28;20055;-69
2022/11/28 02:52:09;;;;;;;49.08;24.33;;;3.80;99.90;;;;;;5051668;28;20021;-68
2022/11/28 02:54:37;;;;;;;45.17;22.05;;;3.80;99.90;;;;;;5051656;28;20370;-67
2022/11/28 02:57:02;;;;;;;47.40;24.17;;;3.80;99.90;;;;;;5052611;28;20037;-68
2022/11/28 02:59:37;;;;;;;43.83;21.20;;;3.90;99.90;;;;;;5052617;28;20032;-67
2022/11/28 03:02:09;;;;;;;48.67;22.63;;;3.80;99.90;;;;;;5052082;28;20033;-68
2022/11/28 03:05:02;;;;;;;53.40;23.83;;;3.80;99.90;;;;;;5051949;28;20465;-68
2022/11/28 03:08:09;;;;;;;42.28;20.95;;;3.80;99.90;;;;;;5051923;28;20029;-67
2022/11/28 03:11:00;;;;;;;43.13;21.58;;;3.90;99.90;;;;;;5046027;28;20045;-67
2022/11/28 03:13:37;;;;;;;48.58;23.42;;;3.90;99.90;;;;;;5051701;28;20539;-67
2022/11/28 03:16:26;;;;;;;44.17;21.55;;;3.80;99.90;;;;;;5051741;28;20073;-68
2022/11/28 03:19:08;;;;;;;44.70;21.45;;;3.90;99.90;;;;;;5053036;28;20041;-67
2022/11/28 03:21:48;;;;;;;46.63;21.90;;;3.90;99.90;;;;;;5056122;28;20057;-68
2022/11/28 03:24:27;;;;;;;40.85;21.15;;;3.90;99.90;;;;;;5055943;28;20025;-67
2022/11/28 03:27:36;;;;;;;42.17;21.30;;;3.90;99.90;;;;;;5055772;28;20115;-68
2022/11/28 03:30:15;;;;;;;47.65;21.83;;;3.90;99.90;;;;;;5033342;28;20087;-67
2022/11/28 03:32:44;;;;;;;47.63;21.77;;;3.90;99.90;;;;;;5033442;28;20425;-69
2022/11/28 03:35:18;;;;;;;40.58;21.63;;;4.00;99.90;;;;;;5033559;28;20084;-68
2022/11/28 03:37:58;;;;;;;47.95;22.10;;;3.90;99.90;;;;;;5033240;28;20490;-69
2022/11/28 03:40:29;;;;;;;47.92;21.88;;;4.00;99.90;;;;;;5033700;28;20464;-69
2022/11/28 03:43:06;;;;;;;45.03;21.83;;;4.00;99.90;;;;;;5033058;28;20025;-69
2022/11/28 03:45:39;;;;;;;46.80;21.40;;;4.00;99.90;;;;;;5033694;28;20029;-69
2022/11/28 03:48:11;;;;;;;45.47;21.00;;;4.00;99.90;;;;;;5033055;28;20045;-69
2022/11/28 03:50:47;;;;;;;43.97;21.63;;;4.00;99.90;;;;;;5033734;28;20104;-69
2022/11/28 03:53:19;;;;;;;42.15;21.45;;;4.00;99.90;;;;;;5033352;28;20041;-69
2022/11/28 03:55:54;;;;;;;38.30;20.25;;;4.00;99.90;;;;;;5032841;28;20072;-69
2022/11/28 03:58:19;;;;;;;42.17;19.48;;;4.00;99.90;;;;;;5033491;28;20532;-69
2022/11/28 04:01:05;;;;;;;43.10;21.08;;;4.00;99.90;;;;;;5043457;28;20120;-69
2022/11/28 04:03:50;;;;;;;40.28;18.80;;;4.10;99.90;;;;;;5055317;28;20414;-69
2022/11/28 04:06:25;;;;;;;37.67;19.02;;;4.10;99.90;;;;;;5055801;28;20047;-70
2022/11/28 04:09:13;;;;;;;34.10;18.08;;;4.10;99.90;;;;;;5055137;28;20029;-70
2022/11/28 04:11:58;;;;;;;38.47;20.58;;;4.10;99.90;;;;;;5055271;28;20025;-69
2022/11/28 04:14:33;;;;;;;39.60;19.65;;;4.10;99.90;;;;;;5055184;28;20098;-69
2022/11/28 04:17:06;;;;;;;44.13;20.75;;;4.10;99.90;;;;;;5054654;28;20097;-69
2022/11/28 04:19:45;;;;;;;40.25;19.33;;;4.10;99.90;;;;;;5055282;28;20033;-69
2022/11/28 04:22:23;;;;;;;38.22;20.00;;;4.10;99.90;;;;;;5053872;28;20463;-69
2022/11/28 04:24:55;;;;;;;36.28;17.75;;;4.10;99.90;;;;;;5054798;28;20378;-68
2022/11/28 04:27:30;;;;;;;37.15;18.83;;;4.10;99.90;;;;;;5055000;28;20021;-68
2022/11/28 04:29:59;;;;;;;41.25;20.08;;;4.10;99.90;;;;;;5054259;28;20025;-68
2022/11/28 04:32:27;;;;;;;38.17;19.48;;;4.10;99.90;;;;;;5054800;28;20117;-68
2022/11/28 04:34:57;;;;;;;30.65;18.20;;;4.20;99.90;;;;;;5054214;28;20075;-68
2022/11/28 04:37:25;;;;;;;38.22;19.35;;;4.10;99.90;;;;;;5055083;28;20040;-68
2022/11/28 04:39:53;;;;;;;35.13;18.45;;;4.20;99.90;;;;;;5054090;28;20029;-69
2022/11/28 04:42:29;;;;;;;36.05;18.85;;;4.20;99.90;;;;;;5054500;28;20504;-68
2022/11/28 04:45:01;;;;;;;36.58;17.90;;;4.20;99.90;;;;;;5054233;28;20033;-69
2022/11/28 04:47:27;;;;;;;39.60;19.10;;;4.20;99.90;;;;;;5054554;28;20108;-68
2022/11/28 04:49:53;;;;;;;37.05;17.65;;;4.20;99.90;;;;;;5053882;28;20115;-69
2022/11/28 04:52:34;;;;;;;35.80;17.35;;;4.20;99.90;;;;;;5054523;28;20109;-68
2022/11/28 04:55:27;;;;;;;36.80;18.88;;;4.20;99.90;;;;;;5052221;28;20025;-71
2022/11/28 04:58:23;;;;;;;38.13;18.38;;;4.20;99.90;;;;;;5053998;28;20428;-68
2022/11/28 05:00:53;;;;;;;33.67;17.63;;;4.20;99.90;;;;;;5051542;28;20116;-68
2022/11/28 05:03:20;;;;;;;33.55;17.42;;;4.20;99.90;;;;;;5054394;28;20378;-68
2022/11/28 05:05:50;;;;;;;34.97;17.38;;;4.20;99.90;;;;;;5054428;28;20020;-68
2022/11/28 05:08:17;;;;;;;40.83;18.42;;;4.20;99.90;;;;;;5053048;28;20057;-68
2022/11/28 05:10:43;;;;;;;33.88;17.23;;;4.10;99.90;;;;;;5054249;28;20083;-68
2022/11/28 05:13:08;;;;;;;38.92;18.52;;;4.10;99.90;;;;;;5053607;28;20033;-68
2022/11/28 05:15:34;;;;;;;35.42;17.98;;;4.10;99.90;;;;;;5054245;28;20025;-67
2022/11/28 05:18:00;;;;;;;35.10;18.02;;;4.10;99.90;;;;;;5053719;28;20049;-67
2022/11/28 05:20:26;;;;;;;35.35;18.27;;;4.10;99.90;;;;;;5053922;28;20083;-69
2022/11/28 05:22:52;;;;;;;32.95;17.08;;;4.10;99.90;;;;;;5053657;28;20025;-69
2022/11/28 05:25:18;;;;;;;32.83;16.60;;;4.10;99.90;;;;;;5053565;28;20032;-69
2022/11/28 05:27:43;;;;;;;35.47;17.10;;;4.10;99.90;;;;;;5053984;28;20033;-69
2022/11/28 05:30:10;;;;;;;30.48;15.57;;;4.10;99.90;;;;;;5053221;28;20454;-69
2022/11/28 05:32:36;;;;;;;27.05;14.25;;;4.10;99.90;;;;;;5053393;28;20036;-69
2022/11/28 05:35:03;;;;;;;28.75;15.35;;;4.10;99.90;;;;;;5052986;28;20405;-69
2022/11/28 05:37:28;;;;;;;29.55;16.02;;;4.00;99.90;;;;;;5053787;28;20032;-69
2022/11/28 05:39:54;;;;;;;28.13;14.77;;;4.00;99.90;;;;;;5052857;28;20033;-69
2022/11/28 05:42:19;;;;;;;28.77;14.50;;;4.10;99.90;;;;;;5053200;28;20029;-69
2022/11/28 05:44:46;;;;;;;27.30;14.68;;;4.10;99.90;;;;;;5053362;28;20025;-69
2022/11/28 05:47:12;;;;;;;28.27;14.15;;;4.10;99.90;;;;;;5052780;28;20029;-69
2022/11/28 05:49:38;;;;;;;25.48;15.32;;;4.10;99.90;;;;;;5053177;28;20028;-69
2022/11/28 05:52:03;;;;;;;27.77;15.13;;;4.10;99.90;;;;;;5052522;28;20021;-68
2022/11/28 05:54:30;;;;;;;28.05;16.52;;;4.10;99.90;;;;;;5052870;28;20021;-68
2022/11/28 05:56:56;;;;;;;26.48;16.05;;;4.10;99.90;;;;;;5052595;28;20033;-69
2022/11/28 05:59:21;;;;;;;30.52;15.80;;;4.10;99.90;;;;;;5052658;28;20033;-68
2022/11/28 06:01:47;;;;;;;29.40;15.77;;;4.10;99.90;;;;;;5052951;28;20029;-68
2022/11/28 06:04:13;;;;;;;29.90;16.00;;;4.10;99.90;;;;;;5052828;28;20025;-68
2022/11/28 06:06:38;;;;;;;32.35;16.48;;;4.10;99.90;;;;;;5053308;28;20406;-68
2022/11/28 06:09:05;;;;;;;30.85;16.38;;;4.10;99.90;;;;;;5052724;28;20086;-68
2022/11/28 06:11:32;;;;;;;32.72;16.70;;;4.10;99.90;;;;;;5053099;28;20077;-68
2022/11/28 06:13:58;;;;;;;36.80;17.58;;;4.20;99.90;;;;;;5052667;28;20028;-68
2022/11/28 06:16:26;;;;;;;31.08;16.00;;;4.20;99.90;;;;;;5052938;28;20032;-68
2022/11/28 06:18:58;;;;;;;34.33;16.02;;;4.10;99.90;;;;;;5052176;28;20425;-69
2022/11/28 06:21:24;;;;;;;37.15;18.48;;;4.10;99.90;;;;;;5052826;28;20132;-68
2022/11/28 06:23:50;;;;;;;39.92;17.83;;;4.20;99.90;;;;;;5052786;28;20021;-69
2022/11/28 06:26:18;;;;;;;33.53;16.92;;;4.20;99.90;;;;;;5052164;28;20484;-68
2022/11/28 06:28:44;;;;;;;38.88;18.60;;;4.20;99.90;;;;;;5052572;28;20028;-68
2022/11/28 06:31:16;;;;;;;31.95;16.48;;;4.20;99.90;;;;;;5052057;28;20070;-68
2022/11/28 06:33:41;;;;;;;36.40;16.92;;;4.20;99.90;;;;;;5052878;28;20032;-68
2022/11/28 06:36:09;;;;;;;33.85;17.40;;;4.20;99.90;;;;;;5052046;28;20470;-68
2022/11/28 06:38:34;;;;;;;33.38;18.20;;;4.20;99.90;;;;;;5052042;28;20142;-69
2022/11/28 06:41:05;;;;;;;36.00;18.65;;;4.20;99.90;;;;;;5052297;28;20032;-69
2022/11/28 06:43:30;;;;;;;37.63;19.17;;;4.20;99.90;;;;;;5052638;28;20036;-69
2022/11/28 06:45:56;;;;;;;31.10;17.08;;;4.30;99.90;;;;;;5052069;28;20242;-69
2022/11/28 06:48:22;;;;;;;39.47;19.50;;;4.30;99.90;;;;;;5052354;28;20035;-68
2022/11/28 06:50:48;;;;;;;34.55;16.58;;;4.30;99.90;;;;;;5052440;28;20032;-68
2022/11/28 06:53:14;;;;;;;33.60;16.52;;;4.30;99.90;;;;;;5050759;28;20354;-68
2022/11/28 06:55:41;;;;;;;33.75;17.90;;;4.30;99.90;;;;;;5052217;28;20032;-68
2022/11/28 06:58:06;;;;;;;30.23;16.25;;;4.30;99.90;;;;;;5051470;28;20033;-68
2022/11/28 07:00:32;;;;;;;29.63;16.30;;;4.30;99.90;;;;;;5052107;28;20044;-68
2022/11/28 07:02:58;;;;;;;34.53;16.70;;;4.30;99.90;;;;;;5051594;28;20031;-71
2022/11/28 07:05:26;;;;;;;32.38;17.63;;;4.30;99.90;;;;;;5051860;28;20108;-69
2022/11/28 07:07:53;;;;;;;30.27;16.65;;;4.40;99.90;;;;;;5052175;28;20039;-68
2022/11/28 07:10:19;;;;;;;31.02;16.02;;;4.40;99.90;;;;;;5051633;28;20106;-68
2022/11/28 07:12:45;;;;;;;30.65;16.67;;;4.40;99.90;;;;;;5052281;28;20109;-68
2022/11/28 07:15:10;;;;;;;39.60;18.02;;;4.40;99.90;;;;;;5049984;28;20100;-68
2022/11/28 07:17:36;;;;;;;32.25;17.10;;;4.50;99.90;;;;;;5052134;28;20466;-68
2022/11/28 07:20:03;;;;;;;36.85;18.15;;;4.50;99.90;;;;;;5051180;28;20032;-69
2022/11/28 07:22:29;;;;;;;35.40;18.80;;;4.50;99.90;;;;;;5051393;28;20036;-68
2022/11/28 07:24:55;;;;;;;33.17;17.38;;;4.50;99.90;;;;;;5051265;28;20033;-68
2022/11/28 07:27:21;;;;;;;34.75;17.05;;;4.60;99.90;;;;;;5051302;28;20025;-68
2022/11/28 07:29:46;;;;;;;34.15;17.58;;;4.60;99.90;;;;;;5051750;28;20079;-68
2022/11/28 07:32:12;;;;;;;35.78;17.42;;;4.60;99.90;;;;;;5051464;28;20377;-68
2022/11/28 07:34:40;;;;;;;36.13;17.67;;;4.60;99.90;;;;;;5051566;28;20060;-68
2022/11/28 07:37:05;;;;;;;37.88;18.60;;;4.50;99.90;;;;;;5051952;28;20477;-68
2022/11/28 07:39:31;;;;;;;38.70;18.63;;;4.60;99.90;;;;;;5051419;28;20041;-69
2022/11/28 07:41:57;;;;;;;33.65;18.52;;;4.60;99.90;;;;;;5051676;28;20040;-69
2022/11/28 07:44:23;;;;;;;38.90;18.60;;;4.60;99.90;;;;;;5050374;28;20022;-69
2022/11/28 07:46:48;;;;;;;32.72;17.88;;;4.60;99.90;;;;;;5051834;28;20029;-69
2022/11/28 07:49:14;;;;;;;40.58;19.95;;;4.60;99.90;;;;;;5051449;28;20334;-68
2022/11/28 07:51:41;;;;;;;34.13;18.50;;;4.70;99.90;;;;;;5051854;28;20025;-69
2022/11/28 07:54:07;;;;;;;35.08;18.33;;;4.60;99.90;;;;;;5051473;28;20067;-69
2022/11/28 07:56:37;;;;;;;38.30;18.15;;;4.70;99.90;;;;;;5050052;28;20060;-69
2022/11/28 07:59:03;;;;;;;35.35;17.67;;;4.70;99.90;;;;;;5050993;28;20115;-68
2022/11/28 08:01:32;;;;;;;32.90;17.77;;;4.70;99.90;;;;;;5051488;28;20040;-69
2022/11/28 08:03:58;;;;;;;33.55;17.80;;;4.80;99.90;;;;;;5051298;28;20036;-69
2022/11/28 08:06:28;;;;;;;33.70;17.58;;;4.80;99.90;;;;;;5054563;28;20025;-69
2022/11/28 08:08:55;;;;;;;36.30;18.38;;;4.90;99.90;;;;;;5055110;28;20036;-68
2022/11/28 08:11:23;;;;;;;31.60;16.30;;;4.90;99.90;;;;;;5054396;28;20478;-68
2022/11/28 08:13:49;;;;;;;34.42;17.45;;;4.90;99.90;;;;;;5054832;28;20040;-68
2022/11/28 08:16:18;;;;;;;32.20;17.35;;;5.00;99.90;;;;;;5054651;28;20104;-69
2022/11/28 08:18:44;;;;;;;33.15;18.05;;;5.00;99.90;;;;;;5055039;28;20087;-68
2022/11/28 08:21:16;;;;;;;37.72;17.45;;;5.00;99.90;;;;;;5054436;28;20118;-68
2022/11/28 08:23:42;;;;;;;31.20;17.38;;;5.10;99.90;;;;;;5055049;28;20029;-68
2022/11/28 08:26:12;;;;;;;31.30;17.30;;;5.20;99.90;;;;;;5054708;28;20458;-68
2022/11/28 08:28:38;;;;;;;29.67;16.42;;;5.20;99.90;;;;;;5055203;28;20155;-68
2022/11/28 08:31:16;;;;;;;30.42;16.73;;;5.30;99.90;;;;;;5054539;28;20021;-69
2022/11/28 08:33:42;;;;;;;31.35;16.58;;;5.30;99.90;;;;;;5054947;28;20415;-69
2022/11/28 08:36:09;;;;;;;33.03;18.85;;;5.20;99.90;;;;;;5053984;28;20083;-68
2022/11/28 08:38:36;;;;;;;28.35;16.85;;;5.30;99.90;;;;;;5054700;28;20039;-67
2022/11/28 08:41:08;;;;;;;38.15;16.98;;;5.40;99.90;;;;;;5054529;28;20532;-71
2022/11/28 08:43:35;;;;;;;29.67;17.02;;;5.40;99.90;;;;;;5054965;28;20017;-68
2022/11/28 08:46:02;;;;;;;28.52;16.10;;;5.50;99.90;;;;;;5054511;28;20049;-68
2022/11/28 08:48:29;;;;;;;30.67;16.23;;;5.50;99.90;;;;;;5053911;28;20033;-68
2022/11/28 08:50:55;;;;;;;31.27;15.73;;;5.60;99.90;;;;;;5053983;28;20012;-68
2022/11/28 08:53:21;;;;;;;28.70;15.43;;;5.60;99.90;;;;;;5054267;28;20079;-69
2022/11/28 08:55:46;;;;;;;27.88;15.65;;;5.70;99.90;;;;;;5054631;28;20365;-67
2022/11/28 08:58:13;;;;;;;27.42;14.95;;;5.70;99.90;;;;;;5054089;28;20029;-68
2022/11/28 09:00:39;;;;;;;28.58;16.10;;;5.70;99.90;;;;;;5054412;28;20033;-68
2022/11/28 09:03:05;;;;;;;27.50;15.48;;;5.70;99.90;;;;;;5053742;28;20037;-69
2022/11/28 09:05:31;;;;;;;25.88;15.55;;;5.80;99.90;;;;;;5054004;28;20027;-68
2022/11/28 09:07:57;;;;;;;28.90;15.82;;;5.90;99.90;;;;;;5054384;28;20085;-67
2022/11/28 09:10:23;;;;;;;28.33;16.45;;;5.90;99.90;;;;;;5054235;28;20461;-68
2022/11/28 09:12:50;;;;;;;28.40;16.42;;;5.90;99.90;;;;;;5054059;28;20067;-69
2022/11/28 09:15:17;;;;;;;28.42;15.75;;;6.00;99.90;;;;;;5052935;28;20131;-70
2022/11/28 09:17:44;;;;;;;23.88;14.48;;;6.10;99.90;;;;;;5054351;28;20032;-68
2022/11/28 09:20:10;;;;;;;24.98;14.63;;;6.10;99.90;;;;;;5052345;28;20118;-68
2022/11/28 09:22:35;;;;;;;25.85;14.90;;;6.20;99.90;;;;;;5054106;28;20045;-68
2022/11/28 09:25:01;;;;;;;26.60;15.98;;;6.20;99.90;;;;;;5054056;28;20028;-68
2022/11/28 09:27:26;;;;;;;26.30;15.73;;;6.20;99.90;;;;;;5053193;28;20075;-70
2022/11/28 09:29:52;;;;;;;26.55;14.73;;;6.20;99.90;;;;;;5052495;28;20033;-69
2022/11/28 09:32:18;;;;;;;27.85;15.02;;;6.10;99.90;;;;;;5053142;28;20430;-68
2022/11/28 09:34:43;;;;;;;24.88;14.80;;;6.00;99.90;;;;;;5053551;28;20076;-68
2022/11/28 09:37:09;;;;;;;27.27;15.70;;;6.00;99.90;;;;;;5053060;28;20025;-69
2022/11/28 09:39:35;;;;;;;26.40;15.20;;;6.10;99.90;;;;;;5053313;28;20037;-69
2022/11/28 09:42:36;;;;;;;28.10;15.00;;;6.10;99.90;;;;;;5053637;28;20028;-68
2022/11/28 09:45:11;;;;;;;30.00;15.18;;;6.20;99.90;;;;;;5053205;28;20470;-68
2022/11/28 09:47:40;;;;;;;25.98;15.43;;;6.20;99.90;;;;;;5053222;28;20064;-68
2022/11/28 09:50:26;;;;;;;27.73;16.05;;;6.30;99.90;;;;;;5053429;28;20148;-68
2022/11/28 09:53:11;;;;;;;23.60;13.82;;;6.30;99.90;;;;;;5053514;28;20060;-68
2022/11/28 09:55:41;;;;;;;23.45;14.10;;;6.40;99.90;;;;;;5053302;28;20075;-68
2022/11/28 09:58:24;;;;;;;24.73;14.70;;;6.60;99.90;;;;;;5053472;28;20021;-72
2022/11/28 10:01:12;;;;;;;22.08;14.82;;;6.60;99.90;;;;;;5053268;28;20398;-68
2022/11/28 10:03:43;;;;;;;26.13;15.07;;;6.70;99.90;;;;;;5053240;28;20021;-68
2022/11/28 10:06:13;;;;;;;23.45;12.88;;;6.80;99.90;;;;;;5053183;28;20021;-68
2022/11/28 10:09:03;;;;;;;23.00;13.77;;;6.90;99.90;;;;;;5053104;28;20021;-69
2022/11/28 10:11:39;;;;;;;23.58;13.98;;;7.00;99.90;;;;;;5053083;28;20033;-68
2022/11/28 10:14:17;;;;;;;28.17;14.48;;;7.10;99.90;;;;;;5053359;28;20117;-69
2022/11/28 10:16:52;;;;;;;20.95;12.82;;;7.10;99.90;;;;;;5051766;28;20370;-68
2022/11/28 10:19:31;;;;;;;23.75;13.45;;;7.10;99.90;;;;;;5052386;28;20355;-68
2022/11/28 10:21:59;;;;;;;25.85;13.43;;;7.10;99.90;;;;;;5052840;28;20083;-67
2022/11/28 10:24:40;;;;;;;20.20;12.57;;;7.20;99.90;;;;;;5052230;28;20048;-69
2022/11/28 10:27:08;;;;;;;21.80;12.75;;;7.20;99.90;;;;;;5052958;28;20033;-69
2022/11/28 10:29:44;;;;;;;22.20;12.75;;;7.20;99.90;;;;;;5052684;28;20389;-68
2022/11/28 10:32:15;;;;;;;19.23;12.48;;;7.30;99.90;;;;;;5052816;28;20351;-68
2022/11/28 10:34:52;;;;;;;24.55;12.50;;;7.20;99.90;;;;;;5052417;28;20082;-67
2022/11/28 10:37:25;;;;;;;19.08;11.77;;;7.20;99.90;;;;;;5052351;28;20023;-68
2022/11/28 10:39:51;;;;;;;23.75;12.77;;;7.20;99.90;;;;;;5052670;28;20033;-67
2022/11/28 10:42:27;;;;;;;20.23;11.80;;;7.30;99.90;;;;;;5052365;28;20060;-68
2022/11/28 10:45:01;;;;;;;23.20;12.15;;;7.20;99.90;;;;;;5052740;28;20059;-69
2022/11/28 10:47:30;;;;;;;26.48;11.88;;;7.30;99.90;;;;;;5052091;28;20028;-69
2022/11/28 10:50:05;;;;;;;22.35;12.27;;;7.20;99.90;;;;;;5051582;28;20036;-69
2022/11/28 10:53:06;;;;;;;21.98;11.98;;;7.30;99.90;;;;;;5051521;28;20057;-68
2022/11/28 10:56:00;;;;;;;19.23;12.48;;;7.30;99.90;;;;;;5051462;28;20072;-69
2022/11/28 10:58:38;;;;;;;18.33;12.38;;;7.30;99.90;;;;;;5049563;28;20045;-68
2022/11/28 11:01:04;;;;;;;22.33;12.27;;;7.30;99.90;;;;;;5052431;28;20036;-68
2022/11/28 11:03:31;;;;;;;23.40;13.65;;;7.30;99.90;;;;;;5051749;28;20017;-69
2022/11/28 11:05:58;;;;;;;24.70;13.02;;;7.40;99.90;;;;;;5051875;28;20052;-68
2022/11/28 11:08:27;;;;;;;23.30;13.48;;;7.40;99.90;;;;;;5051921;28;20148;-68
2022/11/28 11:11:26;;;;;;;25.65;13.35;;;7.40;99.90;;;;;;5052136;28;20075;-69
2022/11/28 11:14:07;;;;;;;24.33;13.05;;;7.40;99.90;;;;;;5051884;28;20063;-69
2022/11/28 11:16:50;;;;;;;;;;;7.40;99.90;;;;;;5051754;28;20331;-69
2022/11/28 11:19:29;;;;;;;23.25;13.85;;;7.30;99.90;;;;;;5051654;28;19912;-69
2022/11/28 11:22:04;;;;;;;25.10;13.75;;;7.20;99.90;;;;;;5052014;28;20082;-68
2022/11/28 11:24:30;;;;;;;29.80;14.52;;;7.20;99.90;;;;;;5051459;28;20473;-68
2022/11/28 11:27:16;;;;;;;29.48;15.10;;;7.20;99.90;;;;;;5051916;28;20035;-68
2022/11/28 11:29:41;;;;;;;25.10;14.63;;;7.00;99.90;;;;;;5051925;28;20029;-68
2022/11/28 11:32:23;;;;;;;25.92;14.93;;;7.00;99.90;;;;;;5051828;28;20088;-69
2022/11/28 11:34:49;;;;;;;28.77;15.32;;;7.00;99.90;;;;;;5051804;28;20041;-69
2022/11/28 11:37:27;;;;;;;28.27;16.02;;;7.00;99.90;;;;;;5051416;28;20040;-70
2022/11/28 11:39:53;;;;;;;25.75;14.07;;;7.00;99.90;;;;;;5054331;28;20035;-68
2022/11/28 11:42:25;;;;;;;27.95;14.80;;;7.00;99.90;;;;;;5053967;28;20029;-68
2022/11/28 11:44:53;;;;;;;25.50;14.43;;;7.00;99.90;;;;;;5056039;28;20029;-68
2022/11/28 11:47:37;;;;;;;25.48;14.05;;;7.10;99.90;;;;;;5054985;28;20028;-68
2022/11/28 11:50:05;;;;;;;27.20;15.13;;;7.00;99.90;;;;;;5055269;28;20024;-68
2022/11/28 11:52:30;;;;;;;28.08;15.45;;;7.00;99.90;;;;;;5055132;28;20485;-68
2022/11/28 11:54:56;;;;;;;32.25;16.33;;;7.00;99.90;;;;;;5055215;28;20048;-67
2022/11/28 11:57:35;;;;;;;25.95;16.27;;;6.90;99.90;;;;;;5054954;28;20064;-68
2022/11/28 12:00:01;;;;;;;32.72;17.23;;;6.90;99.90;;;;;;5055336;28;20078;-68
2022/11/28 12:02:42;;;;;;;31.35;16.55;;;6.90;99.90;;;;;;5054921;28;20037;-68
2022/11/28 12:05:30;;;;;;;30.80;15.93;;;6.90;99.90;;;;;;5055054;28;20108;-68
2022/11/28 12:08:08;;;;;;;31.90;15.95;;;6.70;99.90;;;;;;5055113;28;20035;-69
2022/11/28 12:10:39;;;;;;;29.77;16.33;;;6.70;99.90;;;;;;5054537;28;20043;-68
2022/11/28 12:13:07;;;;;;;;;;;6.70;99.90;;;;;;5055197;28;20068;-68
2022/11/28 12:15:48;;;;;;;32.42;15.88;;;6.60;99.90;;;;;;5054779;28;19904;-68
2022/11/28 12:18:23;;;;;;;26.77;15.98;;;6.50;99.90;;;;;;5054753;28;20041;-68
2022/11/28 12:21:12;;;;;;;29.08;15.05;;;6.50;99.90;;;;;;5055309;28;20037;-68
2022/11/28 12:24:01;;;;;;;28.02;15.50;;;6.50;99.90;;;;;;5054390;28;20344;-68
2022/11/28 12:26:54;;;;;;;30.13;16.23;;;6.40;99.90;;;;;;5054517;28;20052;-67
2022/11/28 12:29:31;;;;;;;29.20;15.65;;;6.40;99.90;;;;;;5054537;28;20134;-68
2022/11/28 12:32:16;;;;;;;29.98;15.50;;;6.40;99.90;;;;;;5054557;28;20025;-68
2022/11/28 12:35:04;;;;;;;29.50;16.10;;;6.30;99.90;;;;;;5054216;28;20457;-68
2022/11/28 12:38:06;;;;;;;29.92;15.15;;;6.30;99.90;;;;;;5054044;28;20033;-68
2022/11/28 12:40:47;;;;;;;30.55;16.08;;;6.40;99.90;;;;;;5054343;28;20079;-69
2022/11/28 12:43:53;;;;;;;26.00;14.68;;;6.30;99.90;;;;;;5054959;28;20040;-68
2022/11/28 12:46:37;;;;;;;31.35;15.07;;;6.20;99.90;;;;;;5054559;28;20090;-69
2022/11/28 12:49:18;;;;;;;27.50;15.52;;;6.20;99.90;;;;;;5054380;28;20112;-69
2022/11/28 12:52:03;;;;;;;32.78;16.75;;;6.30;99.90;;;;;;5052681;28;20032;-69
2022/11/28 12:54:42;;;;;;;32.55;16.52;;;6.20;99.90;;;;;;5054092;28;20465;-69
2022/11/28 12:57:21;;;;;;;32.35;15.63;;;6.20;99.90;;;;;;5054388;28;20477;-69
2022/11/28 12:59:53;;;;;;;30.27;16.33;;;6.20;99.90;;;;;;5053994;28;20139;-69
2022/11/28 13:02:38;;;;;;;31.08;15.93;;;6.10;99.90;;;;;;5054252;28;20035;-69